Time;durP1;ratioP1;P1;durP2;ratioP2;P2;SDS_P1;SDS_P2;PMS_P1;PMS_P2;Temp;Humidity;BMP_temperature;BMP_pressure;BME280_temperature;BME280_humidity;BME280_pressure;Samples;Min_cycle;Max_cycle;Signal;HPM_P1;HPM_P2
2022/08/22 00:02:28;;;;;;;34.18;7.08;;;;;;;24.33;100.00;99143.72;1844282;77;20900;-73
2022/08/22 00:05:22;;;;;;;33.08;6.50;;;;;;;24.29;100.00;99150.80;1837289;77;20861;-75
2022/08/22 00:08:23;;;;;;;44.03;6.67;;;;;;;24.23;100.00;99149.06;1844759;77;20964;-71
2022/08/22 00:11:35;;;;;;;33.50;6.10;;;;;;;24.21;100.00;99147.28;1840143;77;20955;-75
2022/08/22 00:14:23;;;;;;;31.33;6.03;;;;;;;24.21;100.00;99139.47;1844345;77;21516;-75
2022/08/22 00:16:56;;;;;;;37.13;6.25;;;;;;;24.16;100.00;99151.94;1844416;77;20888;-75
2022/08/22 00:19:47;;;;;;;28.67;6.58;;;;;;;24.13;100.00;99152.80;1840029;77;20916;-76
2022/08/22 00:22:46;;;;;;;36.38;6.08;;;;;;;24.09;100.00;99152.06;1844272;77;22155;-76
2022/08/22 00:25:38;;;;;;;29.25;5.97;;;;;;;24.10;100.00;99149.42;1844687;77;20971;-71
2022/08/22 00:28:22;;;;;;;29.80;5.72;;;;;;;24.10;100.00;99155.86;1839898;77;20872;-72
2022/08/22 00:31:05;;;;;;;32.98;5.67;;;;;;;24.11;100.00;99159.45;1844646;77;20883;-76
2022/08/22 00:34:04;;;;;;;34.75;6.15;;;;;;;24.05;100.00;99151.47;1844124;77;21111;-71
2022/08/22 00:37:07;;;;;;;31.95;6.50;;;;;;;24.05;100.00;99165.54;1842266;77;20939;-72
2022/08/22 00:40:03;;;;;;;47.03;5.80;;;;;;;24.05;100.00;99168.35;1844168;77;20956;-76
2022/08/22 00:43:03;;;;;;;27.22;4.97;;;;;;;24.02;100.00;99167.80;1843385;77;21001;-76
2022/08/22 00:46:00;;;;;;;31.52;5.37;;;;;;;24.04;100.00;99171.59;1813141;77;21006;-76
2022/08/22 00:52:04;;;;;;;40.65;5.55;;;;;;;24.02;100.00;99172.64;1836449;77;21248;-73
2022/08/22 00:54:52;;;;;;;43.20;6.50;;;;;;;23.97;100.00;99171.07;1811067;79;20975;-76
2022/08/22 00:57:51;;;;;;;32.42;6.53;;;;;;;23.89;100.00;99169.57;1811105;79;21495;-74
2022/08/22 01:00:25;;;;;;;45.65;7.45;;;;;;;23.86;100.00;99171.82;1806862;79;21342;-73
2022/08/22 01:03:34;;;;;;;25.45;6.53;;;;;;;23.79;100.00;99172.11;1810426;79;21114;-72
2022/08/22 01:06:23;;;;;;;31.07;5.20;;;;;;;23.72;100.00;99172.17;1810519;79;20970;-73
2022/08/22 01:09:02;;;;;;;33.75;6.35;;;;;;;23.67;100.00;99170.63;1811042;79;20962;-76
2022/08/22 01:11:58;;;;;;;25.80;5.90;;;;;;;23.58;100.00;99168.31;1808924;79;20923;-73
2022/08/22 01:14:53;;;;;;;34.08;6.97;;;;;;;23.52;100.00;99171.41;1811232;79;20919;-75
2022/08/22 01:17:59;;;;;;;31.50;5.83;;;;;;;23.32;100.00;99183.20;1811339;79;21065;-76
2022/08/22 01:20:49;;;;;;;34.35;6.83;;;;;;;23.26;100.00;99178.44;1811389;79;20892;-74
2022/08/22 01:23:47;;;;;;;33.92;6.50;;;;;;;23.28;100.00;99180.23;1811145;79;20980;-76
2022/08/22 01:26:51;;;;;;;31.52;5.62;;;;;;;23.25;100.00;99184.69;1795805;79;20955;-74
2022/08/22 01:30:08;;;;;;;43.92;5.97;;;;;;;23.25;100.00;99180.47;1805623;79;20912;-74
2022/08/22 01:33:03;;;;;;;32.95;5.35;;;;;;;23.28;100.00;99182.45;1811035;79;21503;-76
2022/08/22 01:35:58;;;;;;;33.70;5.85;;;;;;;23.32;100.00;99178.98;1804165;79;21532;-76
2022/08/22 01:38:55;;;;;;;30.10;5.33;;;;;;;23.30;100.00;99180.00;1811076;79;21491;-75
2022/08/22 01:41:39;;;;;;;32.42;5.42;;;;;;;23.29;100.00;99175.60;1810229;79;20911;-77
2022/08/22 01:44:37;;;;;;;29.10;6.10;;;;;;;23.30;100.00;99178.59;1807183;79;20908;-76
2022/08/22 01:47:33;;;;;;;25.17;4.62;;;;;;;23.29;100.00;99177.61;1805335;79;20995;-76
2022/08/22 01:50:14;;;;;;;28.00;5.42;;;;;;;23.22;100.00;99173.66;1804580;79;21491;-75
2022/08/22 01:53:00;;;;;;;36.30;6.10;;;;;;;23.17;100.00;99174.70;1803122;79;20940;-77
2022/08/22 01:56:12;;;;;;;23.25;4.55;;;;;;;23.17;100.00;99174.11;1777680;79;21023;-74
2022/08/22 01:58:57;;;;;;;31.55;5.15;;;;;;;23.22;100.00;99181.28;1805148;79;20892;-77
2022/08/22 02:01:42;;;;;;;37.05;4.85;;;;;;;23.23;100.00;99175.24;1777596;79;21227;-77
2022/08/22 02:04:29;;;;;;;24.57;4.78;;;;;;;23.20;100.00;99176.08;1804593;79;20899;-75
2022/08/22 02:07:18;;;;;;;22.65;5.35;;;;;;;23.21;100.00;99178.29;1805254;79;20932;-77
2022/08/22 02:10:35;;;;;;;15.85;4.70;;;;;;;23.25;100.00;99178.27;1800538;79;20968;-74
2022/08/22 02:13:13;;;;;;;21.50;4.28;;;;;;;23.17;100.00;99181.73;1805054;79;21073;-77
2022/08/22 02:16:02;;;;;;;22.40;4.90;;;;;;;23.07;100.00;99182.02;1800892;79;20916;-74
2022/08/22 02:18:41;;;;;;;29.05;6.33;;;;;;;23.00;100.00;99182.09;1804383;79;20919;-78
2022/08/22 02:21:54;;;;;;;33.90;6.50;;;;;;;22.94;100.00;99187.35;1804787;79;21389;-77
2022/08/22 02:24:51;;;;;;;24.35;5.37;;;;;;;22.82;100.00;99190.05;1803702;79;21413;-73
2022/08/22 02:27:50;;;;;;;24.67;5.95;;;;;;;22.68;100.00;99188.94;1805155;79;20828;-74
2022/08/22 02:30:29;;;;;;;32.00;5.97;;;;;;;22.56;100.00;99191.59;1802627;79;21039;-76
2022/08/22 02:33:06;;;;;;;30.48;6.40;;;;;;;22.53;100.00;99192.42;1800560;79;21365;-77
2022/08/22 02:35:50;;;;;;;25.95;5.35;;;;;;;22.52;100.00;99195.02;1776310;79;21082;-74
2022/08/22 02:38:30;;;;;;;27.50;5.33;;;;;;;22.54;100.00;99195.41;1805648;79;20948;-76
2022/08/22 02:41:27;;;;;;;26.77;4.72;;;;;;;22.50;100.00;99193.25;1805045;79;21511;-73
2022/08/22 02:44:15;;;;;;;24.55;5.00;;;;;;;22.41;100.00;99197.91;1804962;79;21916;-76
2022/08/22 02:47:33;;;;;;;34.10;5.55;;;;;;;22.36;100.00;99204.75;1800788;79;20856;-73
2022/08/22 02:50:36;;;;;;;24.67;5.72;;;;;;;22.37;100.00;99215.34;1805480;79;21090;-74
2022/08/22 02:53:37;;;;;;;15.58;4.87;;;;;;;22.32;100.00;99208.77;1805101;79;20978;-77
2022/08/22 02:56:19;;;;;;;21.73;5.22;;;;;;;22.20;100.00;99220.64;1805014;79;21594;-74
2022/08/22 02:58:59;;;;;;;37.55;6.92;;;;;;;22.11;100.00;99210.45;1776108;79;21131;-75
2022/08/22 03:01:37;;;;;;;24.32;5.85;;;;;;;22.05;100.00;99217.70;1752203;79;20892;-75
2022/08/22 03:04:35;;;;;;;30.30;5.50;;;;;;;22.05;100.00;99229.72;1805000;79;20907;-74
2022/08/22 03:07:35;;;;;;;29.12;5.53;;;;;;;22.13;100.00;99228.48;1805029;79;20982;-75
2022/08/22 03:10:22;;;;;;;23.27;4.50;;;;;;;22.16;100.00;99223.27;1804968;79;21046;-74
2022/08/22 03:13:11;;;;;;;25.95;5.62;;;;;;;22.21;100.00;99220.83;1804695;79;21668;-75
2022/08/22 03:15:56;;;;;;;20.57;4.95;;;;;;;22.23;100.00;99226.84;1793317;79;21389;-77
2022/08/22 03:18:49;;;;;;;21.68;4.70;;;;;;;22.28;100.00;99227.63;1803284;79;20872;-77
2022/08/22 03:21:35;;;;;;;23.95;5.00;;;;;;;22.29;100.00;99228.63;1738891;82;20933;-75
2022/08/22 03:24:25;;;;;;;18.85;5.33;;;;;;;22.29;100.00;99230.63;1793183;79;20943;-77
2022/08/22 03:27:19;;;;;;;21.52;4.87;;;;;;;22.29;100.00;99230.03;1804173;79;21800;-75
2022/08/22 03:29:57;;;;;;;25.68;5.28;;;;;;;22.29;100.00;99230.03;1805511;79;21384;-77
2022/08/22 03:32:46;;;;;;;27.02;6.03;;;;;;;22.29;100.00;99231.43;1805156;79;21523;-73
2022/08/22 03:35:48;;;;;;;18.87;5.10;;;;;;;22.24;100.00;99236.06;1805261;79;20955;-77
2022/08/22 03:38:35;;;;;;;24.20;5.12;;;;;;;22.21;100.00;99243.27;1805125;79;20959;-75
2022/08/22 03:41:32;;;;;;;23.30;5.45;;;;;;;22.13;100.00;99245.31;1805202;79;21705;-73
2022/08/22 03:44:22;;;;;;;23.47;5.22;;;;;;;22.10;100.00;99243.92;1804388;79;20920;-77
2022/08/22 03:47:17;;;;;;;19.32;5.03;;;;;;;22.13;100.00;99235.50;1777250;79;20875;-77
2022/08/22 03:50:04;;;;;;;23.02;4.53;;;;;;;22.21;100.00;99247.48;1748359;81;21074;-77
2022/08/22 03:53:07;;;;;;;19.37;4.47;;;;;;;22.29;100.00;99251.66;1798763;79;20971;-76
2022/08/22 03:56:12;;;;;;;24.90;4.67;;;;;;;22.33;100.00;99253.24;1805351;79;21896;-76
2022/08/22 03:59:25;;;;;;;17.67;4.28;;;;;;;22.33;100.00;99249.03;1805136;79;20852;-76
2022/08/22 04:02:43;;;;;;;13.78;4.65;;;;;;;22.35;100.00;99259.84;1804057;79;20939;-75
2022/08/22 04:05:46;;;;;;;22.73;5.40;;;;;;;22.43;100.00;99257.83;1805198;79;20927;-76
2022/08/22 04:08:18;;;;;;;23.90;4.75;;;;;;;22.51;100.00;99267.80;1805192;79;20964;-76
2022/08/22 04:11:24;;;;;;;15.55;3.52;;;;;;;22.62;100.00;99260.77;1805435;79;21461;-74
2022/08/22 04:14:24;;;;;;;19.10;4.42;;;;;;;22.70;100.00;99259.52;1805247;79;20856;-73
2022/08/22 04:17:12;;;;;;;25.48;5.03;;;;;;;22.79;100.00;99267.47;1804948;79;20848;-77
2022/08/22 04:20:22;;;;;;;26.20;4.47;;;;;;;22.81;100.00;99263.65;1782059;79;20959;-76
2022/08/22 04:23:40;;;;;;;23.12;4.00;;;;;;;22.86;100.00;99261.00;1805368;79;20856;-74
2022/08/22 04:26:32;;;;;;;22.65;5.70;;;;;;;22.91;100.00;99268.22;1804326;79;21156;-74
2022/08/22 04:29:17;;;;;;;18.75;4.53;;;;;;;22.97;100.00;99263.16;1804721;79;20903;-76
2022/08/22 04:32:11;;;;;;;24.65;4.40;;;;;;;23.05;100.00;99262.48;1800566;79;20943;-75
2022/08/22 04:34:49;;;;;;;18.05;4.03;;;;;;;23.06;100.00;99262.70;1805704;79;20899;-74
2022/08/22 04:37:26;;;;;;;13.20;4.35;;;;;;;23.13;100.00;99254.02;1800576;79;20896;-76
2022/08/22 04:40:03;;;;;;;18.77;4.78;;;;;;;23.15;100.00;99264.24;1793060;79;21073;-76
2022/08/22 04:42:55;;;;;;;19.95;4.05;;;;;;;23.20;100.00;99256.78;1795650;79;20970;-74
2022/08/22 04:45:35;;;;;;;21.52;6.70;;;;;;;23.23;100.00;99262.34;1805199;79;20984;-73
2022/08/22 04:48:32;;;;;;;26.00;4.90;;;;;;;23.27;100.00;99262.32;1799054;79;20963;-75
2022/08/22 04:51:04;;;;;;;14.38;4.05;;;;;;;23.33;100.00;99262.09;1805327;79;21094;-74
2022/08/22 04:54:25;;;;;;;16.85;4.08;;;;;;;23.33;100.00;99252.25;1805217;79;20912;-75
2022/08/22 04:57:15;;;;;;;15.58;3.75;;;;;;;23.37;100.00;99255.03;1804753;79;21041;-74
2022/08/22 04:59:42;;;;;;;16.62;3.80;;;;;;;23.49;100.00;99257.94;1805210;79;21542;-75
2022/08/22 05:02:10;;;;;;;34.88;5.50;;;;;;;23.55;100.00;99263.33;1805448;79;20976;-76
2022/08/22 05:04:52;;;;;;;21.27;5.60;;;;;;;23.62;100.00;99257.44;1805114;79;21469;-76
2022/08/22 05:07:24;;;;;;;29.63;4.67;;;;;;;23.68;100.00;99262.79;1801615;79;21123;-75
2022/08/22 05:10:01;;;;;;;20.60;4.70;;;;;;;23.74;100.00;99259.73;1805034;79;20864;-78
2022/08/22 05:12:37;;;;;;;21.57;4.33;;;;;;;23.79;100.00;99260.69;1804802;79;21452;-72
2022/08/22 05:15:31;;;;;;;24.00;5.03;;;;;;;23.82;100.00;99261.25;1805630;79;20967;-70
2022/08/22 05:18:16;;;;;;;19.62;5.33;;;;;;;23.88;100.00;99265.83;1799756;79;21030;-75
2022/08/22 05:20:49;;;;;;;27.13;4.78;;;;;;;23.93;100.00;99259.74;1796518;79;21033;-72
2022/08/22 05:23:29;;;;;;;14.93;3.95;;;;;;;23.98;100.00;99264.11;1805290;79;20908;-76
2022/08/22 05:26:00;;;;;;;27.02;4.75;;;;;;;24.05;100.00;99264.00;1804375;79;20904;-76
2022/08/22 05:28:38;;;;;;;20.65;5.30;;;;;;;24.10;100.00;99267.59;1805156;79;20931;-73
2022/08/22 05:31:10;;;;;;;20.10;4.42;;;;;;;24.17;100.00;99267.54;1805141;79;21066;-73
2022/08/22 05:33:48;;;;;;;22.50;5.03;;;;;;;24.23;100.00;99272.08;1805416;79;21496;-72
2022/08/22 05:36:28;;;;;;;18.60;4.40;;;;;;;24.23;100.00;99273.48;1805103;79;20907;-73
2022/08/22 05:39:22;;;;;;;35.17;5.42;;;;;;;24.30;100.00;99277.63;1804202;79;21369;-73
2022/08/22 05:41:50;;;;;;;27.13;4.67;;;;;;;24.33;100.00;99271.78;1798850;79;25016;-75
2022/08/22 05:44:26;;;;;;;25.35;5.35;;;;;;;24.33;100.00;99274.59;1805458;79;20883;-73
2022/08/22 05:47:21;;;;;;;21.02;5.00;;;;;;;24.31;100.00;99268.76;1772627;79;21519;-75
2022/08/22 05:50:03;;;;;;;30.40;5.87;;;;;;;24.31;100.00;99270.16;1801018;79;20924;-76
2022/08/22 05:53:13;;;;;;;20.05;4.40;;;;;;;24.29;100.00;99271.19;1751889;81;20843;-73
2022/08/22 05:56:05;;;;;;;26.07;4.53;;;;;;;24.29;100.00;99277.45;1733487;82;21090;-73
2022/08/22 05:58:49;;;;;;;23.90;4.45;;;;;;;24.35;100.00;99273.54;1791036;79;20928;-77
2022/08/22 06:01:24;;;;;;;23.55;5.25;;;;;;;24.43;100.00;99279.27;1805136;79;21131;-74
2022/08/22 06:04:41;;;;;;;27.73;5.20;;;;;;;24.50;100.00;99275.56;1800557;79;20888;-72
2022/08/22 06:07:23;;;;;;;28.30;4.90;;;;;;;24.57;100.00;99270.47;1805385;79;21563;-73
2022/08/22 06:10:04;;;;;;;20.48;4.85;;;;;;;24.68;100.00;99270.48;1805214;79;21530;-73
2022/08/22 06:12:44;;;;;;;21.95;4.33;;;;;;;24.80;100.00;99273.97;1805112;79;20929;-78
2022/08/22 06:15:43;;;;;;;20.35;4.75;;;;;;;24.92;100.00;99271.21;1747350;79;20983;-77
2022/08/22 06:18:23;;;;;;;23.77;4.28;;;;;;;24.99;100.00;99268.27;1805046;79;21553;-77
2022/08/22 06:21:00;;;;;;;21.23;4.15;;;;;;;25.11;100.00;99263.28;1805192;79;20888;-71
2022/08/22 06:23:50;;;;;;;32.20;4.50;;;;;;;25.22;100.00;99261.68;1805472;79;20912;-72
2022/08/22 06:26:16;;;;;;;25.37;5.67;;;;;;;25.30;100.00;99264.56;1804000;79;20825;-76
2022/08/22 06:28:58;;;;;;;35.33;4.17;;;;;;;25.34;100.00;99267.33;1798161;79;21518;-74
2022/08/22 06:31:31;;;;;;;21.97;4.53;;;;;;;25.36;100.00;99265.69;1804870;79;21424;-78
2022/08/22 06:34:16;;;;;;;19.50;4.05;;;;;;;25.40;100.00;99265.62;1805231;79;21413;-77
2022/08/22 06:36:48;;;;;;;19.32;4.47;;;;;;;25.39;100.00;99260.59;1804666;79;21472;-75
2022/08/22 06:39:32;;;;;;;26.62;5.35;;;;;;;25.38;100.00;99267.47;1805189;79;20868;-74
2022/08/22 06:42:12;;;;;;;30.77;4.30;;;;;;;25.44;100.00;99262.72;1805373;79;22148;-78
2022/08/22 06:45:02;;;;;;;21.25;4.42;;;;;;;25.50;100.00;99266.66;1806028;79;21412;-72
2022/08/22 06:47:51;;;;;;;30.30;4.80;;;;;;;25.56;100.00;99265.54;1807133;79;20985;-74
2022/08/22 06:50:32;;;;;;;25.45;5.35;;;;;;;25.64;100.00;99255.78;1803678;79;21064;-75
2022/08/22 06:53:30;;;;;;;25.72;4.50;;;;;;;25.69;100.00;99259.48;1811201;79;20994;-75
2022/08/22 06:56:01;;;;;;;23.92;4.30;;;;;;;25.78;100.00;99256.73;1751265;81;21096;-74
2022/08/22 06:58:39;;;;;;;34.85;5.33;;;;;;;25.84;100.00;99251.58;1751152;82;20888;-71
2022/08/22 07:01:20;;;;;;;28.92;5.50;;;;;;;25.89;100.00;99249.67;1770109;79;20943;-71
2022/08/22 07:03:54;;;;;;;23.45;4.90;;;;;;;25.96;100.00;99250.14;1811127;79;20915;-78
2022/08/22 07:06:48;;;;;;;21.75;4.28;;;;;;;26.03;100.00;99250.61;1804173;79;20864;-78
2022/08/22 07:09:23;;;;;;;31.90;5.22;;;;;;;26.11;100.00;99248.43;1810844;79;21233;-72
2022/08/22 07:11:57;;;;;;;20.75;4.28;;;;;;;26.18;100.00;99253.94;1810685;79;20994;-79
2022/08/22 07:14:40;;;;;;;22.80;3.10;;;;;;;26.29;100.00;99257.16;1811455;79;27020;-77
2022/08/22 07:17:20;;;;;;;26.57;4.53;;;;;;;26.35;100.00;99248.38;1811158;79;20963;-76
2022/08/22 07:20:24;;;;;;;20.65;3.90;;;;;;;26.44;100.00;99252.80;1811249;79;20928;-76
2022/08/22 07:23:05;;;;;;;24.87;4.05;;;;;;;26.52;100.00;99248.42;1811274;79;20950;-75
2022/08/22 07:25:39;;;;;;;23.07;4.53;;;;;;;26.60;100.00;99253.48;1808742;79;21546;-72
2022/08/22 07:28:38;;;;;;;21.65;4.50;;;;;;;26.65;100.00;99249.97;1807362;79;20868;-75
2022/08/22 07:31:20;;;;;;;19.42;4.65;;;;;;;26.72;100.00;99241.31;1804669;79;20959;-79
2022/08/22 07:33:53;;;;;;;19.45;3.72;;;;;;;26.82;100.00;99243.09;1811405;79;21432;-75
2022/08/22 07:36:40;;;;;;;26.90;4.25;;;;;;;26.93;100.00;99244.88;1811272;79;21902;-76
2022/08/22 07:39:33;;;;;;;20.52;3.80;;;;;;;26.97;100.00;99244.96;1811525;79;21014;-75
2022/08/22 07:42:14;;;;;;;34.33;3.98;;;;;;;27.03;100.00;99250.92;1811344;79;20856;-72
2022/08/22 07:45:05;;;;;;;23.83;3.45;;;;;;;27.12;100.00;99239.61;1811292;79;21479;-76
2022/08/22 07:48:01;;;;;;;17.07;3.95;;;;;;;27.25;100.00;99242.52;1808975;79;20979;-76
2022/08/22 07:50:47;;;;;;;23.25;4.50;;;;;;;27.39;100.00;99235.09;1815678;79;20951;-73
2022/08/22 07:53:56;;;;;;;27.32;4.87;;;;;;;27.52;100.00;99230.14;1811991;79;21479;-72
2022/08/22 07:56:37;;;;;;;27.65;4.33;;;;;;;27.56;100.00;99235.06;1813989;79;21029;-79
2022/08/22 07:59:17;;;;;;;39.08;5.03;;;;;;;27.63;99.28;99236.91;1810008;79;20935;-78
2022/08/22 08:01:46;;;;;;;25.88;3.85;;;;;;;27.68;100.00;99229.30;1776066;79;21038;-76
2022/08/22 08:04:16;;;;;;;37.08;6.40;;;;;;;27.77;98.18;99232.93;1814206;79;21475;-77
2022/08/22 08:06:51;;;;;;;25.77;4.42;;;;;;;27.90;98.55;99230.14;1813654;79;20942;-75
2022/08/22 08:09:19;;;;;;;23.05;3.42;;;;;;;27.99;99.54;99230.91;1814199;79;20955;-76
2022/08/22 08:11:50;;;;;;;22.05;3.62;;;;;;;28.09;97.53;99234.05;1789490;79;20907;-78
2022/08/22 08:14:25;;;;;;;20.77;3.12;;;;;;;28.21;93.11;99235.33;1814230;79;20923;-74
2022/08/22 08:17:05;;;;;;;14.50;3.62;;;;;;;28.27;91.74;99234.14;1809145;79;21667;-71
2022/08/22 08:19:46;;;;;;;24.50;4.17;;;;;;;28.35;94.13;99229.09;1807004;79;21197;-76
2022/08/22 08:22:21;;;;;;;13.53;3.02;;;;;;;28.43;93.12;99232.69;1814020;79;20950;-75
2022/08/22 08:24:50;;;;;;;24.45;3.30;;;;;;;28.51;94.11;99233.86;1814483;79;20899;-77
2022/08/22 08:30:34;;;;;;;17.87;3.80;;;;;;;28.63;93.95;99233.70;1814528;79;21679;-75
2022/08/22 08:33:08;;;;;;;32.55;4.28;;;;;;;28.76;94.31;99228.05;1809691;79;20976;-79
2022/08/22 08:35:39;;;;;;;24.82;3.42;;;;;;;28.88;90.72;99232.91;1814083;79;20911;-79
2022/08/22 08:38:13;;;;;;;19.90;4.25;;;;;;;28.88;88.96;99227.88;1763605;79;20947;-76
2022/08/22 08:41:31;;;;;;;29.37;4.85;;;;;;;29.00;88.28;99224.90;1781953;79;21058;-80
2022/08/22 08:44:39;;;;;;;26.50;4.53;;;;;;;29.02;90.71;99226.63;1814035;79;21543;-80
2022/08/22 08:47:34;;;;;;;22.62;4.08;;;;;;;29.12;91.59;99233.22;1807756;79;20924;-75
2022/08/22 08:50:29;;;;;;;38.25;4.25;;;;;;;29.17;91.76;99226.97;1805340;79;21016;-75
2022/08/22 08:53:29;;;;;;;29.20;4.42;;;;;;;29.26;88.60;99227.67;1800221;79;21015;-76
2022/08/22 08:56:25;;;;;;;24.07;5.00;;;;;;;29.30;91.26;99229.77;1805408;79;21527;-74
2022/08/22 08:59:35;;;;;;;37.48;5.75;;;;;;;29.40;89.74;99228.61;1800692;79;20880;-80
2022/08/22 09:02:48;;;;;;;41.00;5.78;;;;;;;29.50;88.23;99225.84;1805191;79;20853;-77
2022/08/22 09:06:14;;;;;;;20.48;4.47;;;;;;;29.59;88.79;99230.20;1801068;79;21472;-80
2022/08/22 09:09:05;;;;;;;25.80;3.95;;;;;;;29.62;88.40;99226.47;1805339;79;20907;-79
2022/08/22 09:12:14;;;;;;;29.67;5.05;;;;;;;29.73;89.13;99221.03;1805525;79;20860;-73
2022/08/22 09:15:36;;;;;;;28.75;5.42;;;;;;;29.82;86.16;99218.90;1805196;79;21158;-73
2022/08/22 09:18:25;;;;;;;18.65;3.90;;;;;;;29.95;85.97;99223.09;1805074;79;20999;-74
2022/08/22 09:21:39;;;;;;;17.05;4.35;;;;;;;30.07;84.53;99215.75;1801422;79;20916;-74
2022/08/22 09:24:52;;;;;;;36.93;5.30;;;;;;;30.17;83.48;99219.44;1805065;79;20958;-73
2022/08/22 09:27:39;;;;;;;22.32;4.67;;;;;;;30.30;81.63;99211.66;1804005;79;20914;-76
2022/08/22 09:30:18;;;;;;;21.73;4.30;;;;;;;30.42;78.98;99219.15;1805617;79;21497;-78
2022/08/22 09:33:05;;;;;;;32.03;4.87;;;;;;;30.48;77.95;99213.81;1755586;79;20928;-78
2022/08/22 09:35:49;;;;;;;;;;;;;;;30.53;75.96;99215.25;1808429;79;20899;-78
2022/08/22 09:39:04;;;;;;;21.17;4.05;;;;;;;30.54;77.05;99211.14;1787452;79;20162;-77
2022/08/22 09:42:06;;;;;;;35.20;6.00;;;;;;;30.56;71.12;99205.78;1748532;81;21011;-70
2022/08/22 09:44:43;;;;;;;40.28;5.67;;;;;;;30.58;72.64;99208.16;1748505;82;21225;-77
2022/08/22 09:47:29;;;;;;;25.95;4.35;;;;;;;30.67;68.79;99211.67;1796386;79;20963;-73
2022/08/22 09:50:17;;;;;;;49.27;6.37;;;;;;;30.66;68.62;99208.03;1799904;79;21023;-76
2022/08/22 09:53:12;;;;;;;37.30;4.53;;;;;;;30.72;69.04;99210.44;1805152;79;20939;-77
2022/08/22 09:55:56;;;;;;;42.30;6.20;;;;;;;30.81;70.55;99216.80;1805105;79;20991;-76
2022/08/22 09:59:08;;;;;;;45.43;5.70;;;;;;;30.91;70.07;99207.69;1750352;81;20910;-78
2022/08/22 10:02:05;;;;;;;39.13;5.03;;;;;;;30.98;70.76;99213.06;1804998;79;21444;-73
2022/08/22 10:04:55;;;;;;;34.08;4.87;;;;;;;31.01;68.47;99213.38;1805286;79;20971;-79
2022/08/22 10:07:38;;;;;;;26.45;4.28;;;;;;;31.05;65.61;99208.35;1805141;79;20912;-75
2022/08/22 10:10:40;;;;;;;46.45;5.83;;;;;;;31.11;65.02;99210.73;1805203;79;20979;-77
2022/08/22 10:13:37;;;;;;;39.98;5.42;;;;;;;31.16;68.10;99216.41;1805274;79;21019;-80
2022/08/22 10:17:11;;;;;;;35.48;4.85;;;;;;;31.27;68.71;99221.66;1795807;79;20856;-80
2022/08/22 10:19:50;;;;;;;44.77;5.90;;;;;;;31.30;66.51;99221.52;1805262;79;20936;-74
2022/08/22 10:22:30;;;;;;;37.75;5.75;;;;;;;31.33;66.49;99219.77;1805392;79;20984;-79
2022/08/22 10:25:39;;;;;;;37.28;6.10;;;;;;;31.41;69.09;99221.69;1794520;79;21452;-76
2022/08/22 10:28:41;;;;;;;59.00;7.08;;;;;;;31.51;71.18;99222.51;1800637;79;21389;-81
2022/08/22 10:31:42;;;;;;;40.40;7.00;;;;;;;31.56;69.75;99223.30;1805180;79;20924;-82
2022/08/22 10:34:21;;;;;;;59.10;6.22;;;;;;;31.58;68.79;99222.97;1803383;79;20883;-78
2022/08/22 10:37:13;;;;;;;34.92;6.08;;;;;;;31.72;67.31;99219.95;1805238;79;20900;-75
2022/08/22 10:40:01;;;;;;;48.58;6.95;;;;;;;31.77;70.68;99225.81;1805345;79;21472;-78
2022/08/22 10:42:52;;;;;;;38.85;6.90;;;;;;;31.90;70.52;99222.02;1805119;79;39063;-77
2022/08/22 10:45:29;;;;;;;46.70;6.47;;;;;;;31.97;65.55;99223.13;1804460;79;21452;-77
2022/08/22 10:48:07;;;;;;;52.05;7.05;;;;;;;32.01;68.21;99226.61;1805143;79;20972;-75
2022/08/22 10:50:41;;;;;;;53.33;6.58;;;;;;;32.03;68.85;99225.51;1803726;79;20908;-72
2022/08/22 10:53:34;;;;;;;43.02;6.35;;;;;;;32.10;64.82;99223.59;1805122;79;20923;-76
2022/08/22 10:56:17;;;;;;;46.70;7.10;;;;;;;32.09;64.30;99227.72;1805361;79;21483;-79
2022/08/22 10:59:19;;;;;;;57.65;8.15;;;;;;;32.06;67.75;99228.82;1804873;79;20939;-80
2022/08/22 11:02:24;;;;;;;64.25;7.58;;;;;;;32.08;66.77;99231.19;1800414;79;20955;-73
2022/08/22 11:05:23;;;;;;;34.40;6.15;;;;;;;32.11;69.45;99228.03;1763920;79;20926;-73
2022/08/22 11:08:07;;;;;;;64.47;8.65;;;;;;;32.20;69.26;99223.73;1805590;79;20891;-78
2022/08/22 11:11:05;;;;;;;63.10;8.88;;;;;;;32.27;68.73;99226.88;1805252;79;21071;-78
2022/08/22 11:14:12;;;;;;;63.20;8.80;;;;;;;32.32;69.73;99236.20;1805249;79;20952;-71
2022/08/22 11:17:04;;;;;;;58.85;8.30;;;;;;;32.36;68.61;99234.61;1805617;79;20920;-72
2022/08/22 11:20:06;;;;;;;56.33;8.58;;;;;;;32.39;67.79;99230.80;1805461;79;20880;-80
2022/08/22 11:23:07;;;;;;;59.38;8.13;;;;;;;32.36;67.94;99234.61;1804984;79;21046;-79
2022/08/22 11:26:04;;;;;;;42.05;7.90;;;;;;;32.38;70.83;99232.85;1804744;79;21156;-78
2022/08/22 11:28:59;;;;;;;50.03;8.70;;;;;;;32.43;70.96;99234.28;1805180;79;20990;-78
2022/08/22 11:31:48;;;;;;;92.10;10.03;;;;;;;32.55;72.30;99229.03;1805592;79;20860;-80
2022/08/22 11:34:50;;;;;;;54.55;8.75;;;;;;;32.60;70.88;99232.52;1805328;79;20911;-77
2022/08/22 11:37:25;;;;;;;88.15;9.00;;;;;;;32.62;69.40;99229.31;1805488;79;20891;-76
2022/08/22 11:40:19;;;;;;;57.13;8.50;;;;;;;32.67;68.08;99231.52;1720348;83;20878;-77
2022/08/22 11:43:03;;;;;;;57.27;9.23;;;;;;;32.72;69.60;99237.19;1804809;79;21400;-76
2022/08/22 11:45:35;;;;;;;55.38;9.05;;;;;;;32.79;70.68;99228.92;1803271;79;20864;-76
2022/08/22 11:48:22;;;;;;;51.90;9.73;;;;;;;32.79;68.54;99226.07;1805419;79;20884;-77
2022/08/22 11:51:32;;;;;;;74.82;9.55;;;;;;;32.86;67.53;99224.95;1782170;79;21070;-74
2022/08/22 11:54:10;;;;;;;72.08;9.90;;;;;;;32.89;64.20;99235.39;1805296;79;21168;-76
2022/08/22 11:56:52;;;;;;;84.60;11.38;;;;;;;32.89;67.75;99237.59;1804838;79;20924;-78
2022/08/22 11:59:39;;;;;;;88.87;10.40;;;;;;;32.90;61.89;99232.69;1805076;79;20860;-76
2022/08/22 12:02:26;;;;;;;79.05;9.98;;;;;;;32.87;62.58;99229.38;1805141;79;20954;-77
2022/08/22 12:04:59;;;;;;;83.90;10.98;;;;;;;32.92;62.32;99225.87;1759423;79;20911;-80
2022/08/22 12:07:30;;;;;;;80.85;11.57;;;;;;;32.93;63.04;99227.44;1738699;79;21114;-78
2022/08/22 12:10:16;;;;;;;96.00;13.93;;;;;;;32.99;60.09;99219.81;1805435;79;20825;-78
2022/08/22 12:13:15;;;;;;;96.82;13.18;;;;;;;33.02;56.61;99223.75;1776769;79;20959;-76
2022/08/22 12:16:09;;;;;;;108.07;11.63;;;;;;;33.05;56.14;99228.48;1805257;79;20876;-77
2022/08/22 12:18:56;;;;;;;98.82;12.75;;;;;;;33.03;56.91;99230.39;1805458;79;20904;-78
2022/08/22 12:21:55;;;;;;;88.65;11.33;;;;;;;33.10;56.34;99225.63;1805056;79;21098;-77
2022/08/22 12:24:39;;;;;;;78.25;10.75;;;;;;;33.13;54.59;99226.10;1805248;79;21436;-77
2022/08/22 12:27:20;;;;;;;89.52;13.43;;;;;;;33.15;53.94;99222.91;1804888;79;21008;-71
2022/08/22 12:30:32;;;;;;;95.35;12.35;;;;;;;33.12;54.37;99223.08;1803336;79;21428;-73
2022/08/22 12:33:21;;;;;;;82.80;12.30;;;;;;;33.15;55.94;99224.95;1805439;78;20820;-78
2022/08/22 12:36:34;;;;;;;98.03;11.65;;;;;;;33.22;53.30;99223.17;1804997;79;21460;-77
2022/08/22 12:39:27;;;;;;;87.80;12.55;;;;;;;33.12;53.33;99228.16;1770220;80;20936;-78
2022/08/22 12:42:07;;;;;;;117.22;14.58;;;;;;;33.13;53.32;99228.95;1782750;79;20864;-79
2022/08/22 12:44:57;;;;;;;92.33;13.38;;;;;;;33.09;53.59;99219.14;1805251;79;20872;-71
2022/08/22 12:48:04;;;;;;;79.97;10.43;;;;;;;33.12;53.87;99214.52;1809061;79;21026;-72
2022/08/22 12:50:58;;;;;;;70.62;12.47;;;;;;;33.17;54.13;99223.84;1805237;79;21137;-78
2022/08/22 12:54:14;;;;;;;99.35;12.53;;;;;;;33.21;55.40;99217.95;1805035;79;20980;-73
2022/08/22 12:57:21;;;;;;;81.92;11.95;;;;;;;33.12;55.74;99220.23;1797968;79;20887;-74
2022/08/22 12:59:52;;;;;;;85.42;12.13;;;;;;;33.09;55.36;99224.02;1805235;79;20896;-80
2022/08/22 13:02:33;;;;;;;87.10;11.97;;;;;;;33.03;54.31;99224.69;1798540;79;20903;-77
2022/08/22 13:05:15;;;;;;;73.12;12.18;;;;;;;33.05;57.82;99223.43;1805030;79;21825;-80
2022/08/22 13:07:59;;;;;;;82.47;12.95;;;;;;;33.03;57.98;99222.46;1804986;79;21515;-77
2022/08/22 13:10:44;;;;;;;148.30;18.48;;;;;;;33.10;59.16;99221.34;1804234;79;21400;-73